Time;durP1;ratioP1;P1;durP2;ratioP2;P2;SDS_P1;SDS_P2;PMS_P1;PMS_P2;Temp;Humidity;BMP_temperature;BMP_pressure;BME280_temperature;BME280_humidity;BME280_pressure;Samples;Min_cycle;Max_cycle;Signal;HPM_P1;HPM_P2
2023/02/22 00:01:49;;;;;;;15.95;12.80;;;;;;;;;;6210789;23;20031;-86
2023/02/22 00:04:20;;;;;;;23.80;16.83;;;;;;;;;;6221680;23;20467;-86
2023/02/22 00:06:48;;;;;;;20.05;14.23;;;;;;;;;;6240277;23;20017;-86
2023/02/22 00:09:19;;;;;;;18.38;16.48;;;;;;;;;;6265768;22;19997;-86
2023/02/22 00:11:47;;;;;;;21.08;14.18;;;;;;;;;;6251818;22;20004;-86
2023/02/22 00:14:16;;;;;;;15.05;12.85;;;;;;;;;;6241892;22;20052;-86
2023/02/22 00:16:44;;;;;;;18.30;13.88;;;;;;;;;;6240975;22;20020;-86
2023/02/22 00:19:13;;;;;;;21.15;13.73;;;;;;;;;;6214776;23;20482;-86
2023/02/22 00:21:43;;;;;;;17.70;13.52;;;;;;;;;;6211801;23;20229;-86
2023/02/22 00:24:22;;;;;;;17.35;14.00;;;;;;;;;;6213366;23;20024;-86
2023/02/22 00:26:54;;;;;;;16.27;14.63;;;;;;;;;;6223293;23;20638;-86
2023/02/22 00:29:22;;;;;;;15.23;13.60;;;;;;;;;;6212667;23;20039;-86
2023/02/22 00:31:49;;;;;;;13.70;12.30;;;;;;;;;;6237362;23;20017;-86
2023/02/22 00:34:19;;;;;;;18.40;13.52;;;;;;;;;;6212216;23;20024;-86
2023/02/22 00:36:47;;;;;;;14.32;12.57;;;;;;;;;;6187452;23;20024;-86
2023/02/22 00:39:17;;;;;;;19.05;14.05;;;;;;;;;;6248618;23;20023;-86
2023/02/22 00:41:48;;;;;;;16.02;13.05;;;;;;;;;;6212267;23;20024;-86
2023/02/22 00:44:15;;;;;;;15.27;12.07;;;;;;;;;;6212626;23;20032;-86
2023/02/22 00:46:43;;;;;;;16.60;13.85;;;;;;;;;;6212290;23;20020;-86
2023/02/22 00:49:10;;;;;;;17.80;13.48;;;;;;;;;;6212974;23;20024;-86
2023/02/22 00:51:37;;;;;;;13.75;12.05;;;;;;;;;;6186359;23;20013;-86
2023/02/22 00:54:06;;;;;;;14.95;12.45;;;;;;;;;;6212943;23;20027;-86
2023/02/22 00:56:34;;;;;;;14.05;12.50;;;;;;;;;;6212154;23;20555;-86
2023/02/22 00:59:01;;;;;;;12.65;10.23;;;;;;;;;;6188739;23;20020;-86
2023/02/22 01:01:31;;;;;;;15.07;12.23;;;;;;;;;;6237996;23;20337;-86
2023/02/22 01:03:58;;;;;;;13.88;12.57;;;;;;;;;;6212958;23;20020;-87
2023/02/22 01:06:25;;;;;;;18.25;13.45;;;;;;;;;;6235214;23;20017;-86
2023/02/22 01:08:53;;;;;;;15.77;12.77;;;;;;;;;;6224795;23;20360;-85
2023/02/22 01:11:22;;;;;;;15.02;13.45;;;;;;;;;;6212270;23;20020;-86
2023/02/22 01:13:49;;;;;;;15.35;13.23;;;;;;;;;;6186168;23;20020;-86
2023/02/22 01:16:19;;;;;;;15.98;14.38;;;;;;;;;;6210760;23;20027;-86
2023/02/22 01:18:46;;;;;;;14.15;12.40;;;;;;;;;;6213104;23;20016;-86
2023/02/22 01:21:14;;;;;;;16.67;13.65;;;;;;;;;;6211299;23;20076;-86
2023/02/22 01:23:44;;;;;;;16.50;14.45;;;;;;;;;;6211649;23;20472;-86
2023/02/22 01:26:14;;;;;;;14.70;11.68;;;;;;;;;;6186098;23;20039;-86
2023/02/22 01:28:42;;;;;;;14.13;11.00;;;;;;;;;;6212577;23;20023;-86
2023/02/22 01:31:11;;;;;;;15.02;12.27;;;;;;;;;;6248454;23;20009;-86
2023/02/22 01:33:38;;;;;;;19.98;12.93;;;;;;;;;;6211831;23;20023;-86
2023/02/22 01:36:10;;;;;;;16.80;14.93;;;;;;;;;;6187757;23;20024;-87
2023/02/22 01:38:37;;;;;;;16.13;12.07;;;;;;;;;;6186607;23;20039;-86
2023/02/22 01:41:05;;;;;;;12.05;10.57;;;;;;;;;;6212756;23;20016;-86
2023/02/22 01:43:33;;;;;;;19.73;13.27;;;;;;;;;;6211504;23;20017;-86
2023/02/22 01:46:02;;;;;;;15.20;13.50;;;;;;;;;;6186816;23;20032;-86
2023/02/22 01:48:35;;;;;;;12.30;10.98;;;;;;;;;;6212545;23;20013;-86
2023/02/22 01:51:09;;;;;;;16.55;13.65;;;;;;;;;;6212996;23;20020;-86
2023/02/22 01:53:44;;;;;;;15.13;11.35;;;;;;;;;;6222270;23;20009;-87
2023/02/22 01:56:14;;;;;;;21.05;13.45;;;;;;;;;;6222898;23;20184;-86
2023/02/22 01:58:48;;;;;;;11.63;10.23;;;;;;;;;;6163169;23;20023;-86
2023/02/22 02:01:21;;;;;;;17.42;12.68;;;;;;;;;;6186169;23;20016;-86
2023/02/22 02:03:49;;;;;;;14.13;11.43;;;;;;;;;;6195692;23;20020;-86
2023/02/22 02:06:17;;;;;;;16.63;11.50;;;;;;;;;;6162213;23;20367;-86
2023/02/22 02:08:50;;;;;;;13.73;11.38;;;;;;;;;;6186255;23;20013;-86
2023/02/22 02:11:20;;;;;;;11.93;10.13;;;;;;;;;;6196298;23;20016;-86
2023/02/22 02:13:49;;;;;;;9.57;8.63;;;;;;;;;;6187049;23;20368;-86
2023/02/22 02:16:17;;;;;;;12.15;10.30;;;;;;;;;;6212429;23;20016;-86
2023/02/22 02:18:49;;;;;;;10.82;8.30;;;;;;;;;;6184874;23;20028;-87
2023/02/22 02:21:49;;;;;;;17.10;9.40;;;;;;;;;;6222623;23;20362;-86
2023/02/22 02:24:51;;;;;;;13.73;10.93;;;;;;;;;;6162169;23;20017;-86
2023/02/22 02:27:22;;;;;;;11.00;8.43;;;;;;;;;;6196638;23;20017;-86
2023/02/22 02:30:33;;;;;;;11.25;10.10;;;;;;;;;;6213183;23;20017;-86
2023/02/22 02:33:06;;;;;;;13.48;11.88;;;;;;;;;;6197816;23;20013;-86
2023/02/22 02:35:43;;;;;;;13.57;11.07;;;;;;;;;;6187227;23;20025;-86
2023/02/22 02:38:14;;;;;;;15.10;10.70;;;;;;;;;;6196650;23;20472;-86
2023/02/22 02:40:46;;;;;;;13.45;9.90;;;;;;;;;;6223042;23;20013;-86
2023/02/22 02:43:19;;;;;;;13.60;10.32;;;;;;;;;;6211123;23;20017;-86
2023/02/22 02:45:49;;;;;;;13.52;9.60;;;;;;;;;;6212605;23;20009;-86
2023/02/22 02:48:20;;;;;;;14.98;10.98;;;;;;;;;;6185952;23;20495;-86
2023/02/22 02:50:48;;;;;;;14.00;9.73;;;;;;;;;;6161176;23;20012;-86
2023/02/22 02:53:18;;;;;;;12.73;9.93;;;;;;;;;;6185716;23;20075;-86
2023/02/22 08:57:41;;;;;;;10.98;9.20;;;;;;;;;;6213044;23;20024;-86
2023/02/22 09:00:23;;;;;;;10.90;9.30;;;;;;;;;;6213412;23;20017;-86
2023/02/22 09:02:52;;;;;;;12.27;8.53;;;;;;;;;;6222984;23;20012;-86
2023/02/22 09:05:20;;;;;;;9.95;6.50;;;;;;;;;;6213712;23;20021;-85
2023/02/22 09:07:50;;;;;;;15.65;9.48;;;;;;;;;;6212653;23;20345;-86
2023/02/22 09:10:24;;;;;;;11.05;7.97;;;;;;;;;;6188380;23;20021;-86
2023/02/22 09:12:55;;;;;;;12.88;9.32;;;;;;;;;;6224478;23;20012;-86
2023/02/22 09:15:25;;;;;;;15.75;9.32;;;;;;;;;;6214852;23;20028;-86
2023/02/22 09:17:52;;;;;;;8.93;7.40;;;;;;;;;;6213657;23;20024;-86
2023/02/22 09:20:22;;;;;;;14.35;9.77;;;;;;;;;;6215372;23;20017;-87
2023/02/22 09:22:52;;;;;;;12.88;8.88;;;;;;;;;;6212099;23;20351;-87
2023/02/22 09:25:20;;;;;;;14.07;9.93;;;;;;;;;;6189331;23;20031;-87
2023/02/22 09:27:48;;;;;;;14.52;10.13;;;;;;;;;;6213378;23;20008;-86
2023/02/22 09:30:19;;;;;;;14.40;10.52;;;;;;;;;;6187398;23;20025;-86
2023/02/22 09:32:48;;;;;;;12.40;10.40;;;;;;;;;;6186559;23;20012;-87
2023/02/22 09:35:15;;;;;;;13.90;11.00;;;;;;;;;;6191093;23;20021;-87
2023/02/22 09:37:43;;;;;;;12.30;10.32;;;;;;;;;;6188989;23;20024;-86
2023/02/22 09:40:23;;;;;;;12.80;10.00;;;;;;;;;;6189425;23;20017;-93
2023/02/22 09:43:06;;;;;;;12.20;9.43;;;;;;;;;;6187878;23;20016;-90
2023/02/22 09:46:05;;;;;;;13.30;9.35;;;;;;;;;;6198954;22;20479;-90
2023/02/22 09:48:43;;;;;;;12.43;10.55;;;;;;;;;;6185968;23;20044;-88
2023/02/22 09:51:15;;;;;;;17.05;10.85;;;;;;;;;;6189234;23;20027;-89
2023/02/22 09:53:49;;;;;;;13.02;11.45;;;;;;;;;;6192867;23;20021;-91
2023/02/22 09:56:19;;;;;;;14.23;9.63;;;;;;;;;;6165048;23;20027;-90
2023/02/22 09:58:52;;;;;;;14.02;10.80;;;;;;;;;;6165727;23;20359;-90
2023/02/22 10:01:25;;;;;;;15.07;9.73;;;;;;;;;;6225422;23;20012;-89
2023/02/22 10:04:00;;;;;;;13.88;10.13;;;;;;;;;;6166554;23;20607;-89
2023/02/22 10:06:28;;;;;;;13.18;9.55;;;;;;;;;;6226677;23;20020;-88
2023/02/22 10:09:11;;;;;;;14.68;9.63;;;;;;;;;;6189640;23;20017;-89
2023/02/22 10:11:51;;;;;;;12.73;10.57;;;;;;;;;;6187968;23;20020;-90
2023/02/22 10:14:43;;;;;;;13.38;11.95;;;;;;;;;;6185321;23;20028;-89
2023/02/22 10:17:16;;;;;;;11.40;10.25;;;;;;;;;;6191311;23;20024;-89
2023/02/22 10:19:54;;;;;;;10.98;9.63;;;;;;;;;;6195990;23;20020;-89
2023/02/22 10:22:36;;;;;;;11.98;9.23;;;;;;;;;;6219826;22;20067;-88
2023/02/22 10:25:06;;;;;;;13.50;9.40;;;;;;;;;;6202857;23;20020;-90
2023/02/22 10:27:38;;;;;;;13.68;9.00;;;;;;;;;;6159871;23;20455;-89
2023/02/22 10:30:08;;;;;;;15.57;10.40;;;;;;;;;;6193669;23;20019;-90
2023/02/22 10:32:44;;;;;;;13.40;9.55;;;;;;;;;;6183242;23;20498;-89
2023/02/22 10:35:28;;;;;;;14.00;10.18;;;;;;;;;;6183958;23;20608;-89
2023/02/22 10:37:59;;;;;;;13.55;10.45;;;;;;;;;;6165055;23;20024;-89
2023/02/22 10:40:32;;;;;;;22.52;9.13;;;;;;;;;;6199087;23;20020;-89
2023/02/22 10:43:02;;;;;;;12.07;8.68;;;;;;;;;;6186818;23;20482;-89
2023/02/22 10:45:32;;;;;;;13.25;10.13;;;;;;;;;;6213519;23;20020;-90
2023/02/22 10:48:02;;;;;;;13.38;9.43;;;;;;;;;;6163797;23;20017;-89
2023/02/22 10:50:33;;;;;;;10.95;9.05;;;;;;;;;;6186941;23;20023;-90
2023/02/22 10:53:01;;;;;;;14.77;9.27;;;;;;;;;;6224532;23;20009;-89
2023/02/22 10:55:31;;;;;;;11.80;9.32;;;;;;;;;;6189340;23;20024;-88
2023/02/22 10:58:03;;;;;;;16.88;11.40;;;;;;;;;;6188231;23;20012;-90
2023/02/22 11:00:36;;;;;;;12.02;10.27;;;;;;;;;;6168454;23;20017;-87
2023/02/22 11:03:07;;;;;;;11.57;9.82;;;;;;;;;;6186466;23;20016;-87
2023/02/22 11:05:40;;;;;;;13.82;10.30;;;;;;;;;;6187388;23;20021;-87
2023/02/22 11:08:16;;;;;;;12.85;9.70;;;;;;;;;;6164348;23;20017;-89
2023/02/22 11:10:44;;;;;;;14.40;10.23;;;;;;;;;;6195461;23;20020;-87
2023/02/22 11:13:19;;;;;;;15.27;9.88;;;;;;;;;;6195297;23;20027;-89
2023/02/22 11:15:51;;;;;;;16.55;9.38;;;;;;;;;;6187626;23;20019;-87
2023/02/22 11:18:25;;;;;;;15.57;10.88;;;;;;;;;;6188483;23;20020;-88
2023/02/22 11:21:06;;;;;;;12.15;8.93;;;;;;;;;;6164016;23;20460;-88
2023/02/22 11:23:34;;;;;;;14.02;10.13;;;;;;;;;;6219473;23;20015;-88
2023/02/22 11:26:08;;;;;;;13.15;10.20;;;;;;;;;;6163917;23;20020;-88
2023/02/22 11:28:36;;;;;;;10.70;8.18;;;;;;;;;;6163976;23;20027;-90
2023/02/22 11:31:13;;;;;;;10.57;8.52;;;;;;;;;;6161603;23;20368;-90
2023/02/22 11:33:51;;;;;;;23.35;9.32;;;;;;;;;;6186013;23;20024;-89
2023/02/22 11:36:36;;;;;;;15.48;10.75;;;;;;;;;;6160405;23;20040;-89
2023/02/22 11:39:10;;;;;;;12.10;9.50;;;;;;;;;;6161502;23;20021;-89
2023/02/22 11:41:39;;;;;;;;;;;;;;;;;;6161071;23;20021;-89
2023/02/22 11:44:22;;;;;;;14.88;9.70;;;;;;;;;;6162400;23;19916;-89
2023/02/22 11:47:05;;;;;;;10.85;9.75;;;;;;;;;;6188189;23;20023;-91
2023/02/22 11:49:37;;;;;;;12.38;9.20;;;;;;;;;;6199764;23;20016;-90
2023/02/22 11:52:44;;;;;;;17.05;9.88;;;;;;;;;;6191284;23;20506;-89
2023/02/22 11:55:35;;;;;;;14.52;9.35;;;;;;;;;;6169233;23;20700;-88
2023/02/22 11:58:14;;;;;;;13.82;8.43;;;;;;;;;;6223082;23;20016;-89
2023/02/22 12:01:10;;;;;;;13.32;10.02;;;;;;;;;;6192120;23;20016;-89
2023/02/22 12:03:52;;;;;;;11.40;8.88;;;;;;;;;;6166878;23;20019;-89
2023/02/22 12:06:46;;;;;;;15.50;9.20;;;;;;;;;;6165919;23;20017;-90
2023/02/22 12:09:48;;;;;;;10.30;8.23;;;;;;;;;;6190638;23;20044;-90
2023/02/22 12:13:01;;;;;;;18.20;8.50;;;;;;;;;;6226679;23;20352;-91
2023/02/22 12:15:38;;;;;;;12.15;9.23;;;;;;;;;;6191610;23;20017;-91
2023/02/22 12:18:09;;;;;;;17.67;8.88;;;;;;;;;;6225626;23;20017;-90
2023/02/22 12:20:39;;;;;;;19.10;8.73;;;;;;;;;;6191694;23;20021;-91
2023/02/22 12:23:18;;;;;;;13.88;9.43;;;;;;;;;;6200665;23;20024;-90
2023/02/22 12:25:56;;;;;;;13.25;9.27;;;;;;;;;;6232874;23;20023;-90
2023/02/22 12:28:28;;;;;;;11.93;8.80;;;;;;;;;;6201561;23;20038;-90
2023/02/22 12:31:04;;;;;;;14.30;10.17;;;;;;;;;;6202303;23;20017;-89
2023/02/22 12:33:43;;;;;;;19.65;10.30;;;;;;;;;;6194096;23;20016;-88
2023/02/22 12:36:14;;;;;;;17.00;9.88;;;;;;;;;;6192523;23;20028;-90
2023/02/22 12:38:43;;;;;;;16.17;9.82;;;;;;;;;;6192364;23;20021;-91
2023/02/22 12:41:17;;;;;;;15.57;10.63;;;;;;;;;;6219234;23;20021;-89
2023/02/22 12:44:00;;;;;;;11.35;8.50;;;;;;;;;;6191085;23;20013;-90
2023/02/22 12:46:31;;;;;;;12.65;9.00;;;;;;;;;;6192623;23;20027;-91
2023/02/22 12:49:06;;;;;;;11.25;8.23;;;;;;;;;;6166908;23;20016;-91
2023/02/22 12:51:41;;;;;;;12.43;9.27;;;;;;;;;;6228904;23;20023;-90
2023/02/22 12:54:14;;;;;;;11.98;8.50;;;;;;;;;;6195318;23;20017;-92
2023/02/22 12:56:45;;;;;;;;;;;;;;;;;;6204140;23;20072;-89
2023/02/22 12:59:18;;;;;;;16.10;10.02;;;;;;;;;;6248079;23;19922;-91
2023/02/22 13:01:52;;;;;;;12.25;9.10;;;;;;;;;;6212956;23;20027;-91
2023/02/22 13:04:26;;;;;;;17.10;10.25;;;;;;;;;;6215298;23;20031;-90
2023/02/22 13:07:05;;;;;;;11.48;9.15;;;;;;;;;;6236657;23;20023;-91
2023/02/22 13:09:41;;;;;;;11.00;8.98;;;;;;;;;;6174142;23;20071;-91
2023/02/22 13:12:19;;;;;;;11.07;9.77;;;;;;;;;;6198215;23;20513;-91
2023/02/22 13:14:59;;;;;;;12.75;11.23;;;;;;;;;;6170872;23;20483;-91
2023/02/22 13:17:36;;;;;;;15.75;8.65;;;;;;;;;;6191367;23;20027;-91
2023/02/22 13:20:10;;;;;;;12.73;9.80;;;;;;;;;;6191922;23;20030;-89
2023/02/22 13:22:45;;;;;;;13.30;9.23;;;;;;;;;;6192940;23;20020;-91
2023/02/22 13:25:16;;;;;;;13.13;8.05;;;;;;;;;;6192794;23;20020;-91
2023/02/22 13:27:49;;;;;;;16.15;10.20;;;;;;;;;;6167643;23;20019;-89
2023/02/22 13:30:22;;;;;;;10.77;8.45;;;;;;;;;;6228209;23;20016;-91
2023/02/22 13:33:13;;;;;;;13.80;9.55;;;;;;;;;;6190608;23;20025;-90
2023/02/22 13:36:05;;;;;;;28.80;9.95;;;;;;;;;;6193833;23;20017;-92
2023/02/22 13:39:01;;;;;;;13.70;8.15;;;;;;;;;;6175731;23;20020;-91
2023/02/22 13:41:39;;;;;;;;;;;;;;;;;;6226267;23;20020;-91
2023/02/22 13:44:35;;;;;;;11.52;8.40;;;;;;;;;;6196257;23;20488;-90
2023/02/22 13:47:35;;;;;;;11.13;8.85;;;;;;;;;;6124773;23;20034;-90
2023/02/22 13:50:33;;;;;;;11.00;8.73;;;;;;;;;;6176875;23;20021;-90
2023/02/22 13:53:11;;;;;;;15.20;8.73;;;;;;;;;;6195543;23;20333;-89
2023/02/22 13:55:41;;;;;;;12.77;8.85;;;;;;;;;;6244734;23;20062;-90
2023/02/22 13:58:13;;;;;;;16.13;9.45;;;;;;;;;;6245869;23;20016;-90
2023/02/22 14:00:52;;;;;;;15.52;9.55;;;;;;;;;;6182532;23;20337;-90
2023/02/22 14:03:39;;;;;;;12.50;9.82;;;;;;;;;;6201287;23;20020;-90
2023/02/22 14:06:09;;;;;;;14.90;8.68;;;;;;;;;;6202181;23;20012;-90
2023/02/22 14:08:58;;;;;;;11.23;8.38;;;;;;;;;;6192132;23;20027;-91
2023/02/22 14:11:54;;;;;;;11.95;9.18;;;;;;;;;;6155870;23;20020;-91
2023/02/22 14:14:25;;;;;;;16.98;9.38;;;;;;;;;;6193633;23;20376;-92
2023/02/22 14:17:26;;;;;;;17.13;10.55;;;;;;;;;;6218771;23;20013;-91
2023/02/22 14:20:13;;;;;;;12.65;9.50;;;;;;;;;;6192046;23;20075;-91
2023/02/22 14:22:43;;;;;;;13.38;9.55;;;;;;;;;;6193960;23;20038;-89
2023/02/22 14:25:38;;;;;;;11.95;9.20;;;;;;;;;;6192350;23;20013;-90
2023/02/22 14:28:07;;;;;;;15.35;8.73;;;;;;;;;;6196956;23;20008;-91
2023/02/22 14:30:37;;;;;;;15.70;8.88;;;;;;;;;;6195037;23;20027;-90
2023/02/22 14:33:47;;;;;;;15.38;9.10;;;;;;;;;;6194980;23;20027;-90
2023/02/22 14:36:17;;;;;;;21.33;11.82;;;;;;;;;;6197914;23;20021;-91
2023/02/22 14:38:47;;;;;;;16.75;9.57;;;;;;;;;;6230425;23;20019;-92
2023/02/22 14:41:16;;;;;;;14.23;8.88;;;;;;;;;;6172169;23;20021;-90
2023/02/22 14:43:50;;;;;;;13.40;9.13;;;;;;;;;;6194562;23;20025;-91
2023/02/22 14:46:23;;;;;;;13.32;9.02;;;;;;;;;;6195040;23;20047;-91
2023/02/22 14:48:56;;;;;;;16.05;9.98;;;;;;;;;;6230974;23;20013;-90
2023/02/22 14:51:30;;;;;;;12.48;9.18;;;;;;;;;;6165955;23;20025;-90
2023/02/22 14:54:05;;;;;;;10.95;8.85;;;;;;;;;;6170267;23;20017;-92
2023/02/22 15:11:12;;;;;;;13.15;8.05;;;;;;;;;;6220874;22;20013;-90
2023/02/22 15:13:49;;;;;;;11.90;8.57;;;;;;;;;;6186807;23;20024;-89
2023/02/22 15:16:17;;;;;;;18.15;8.70;;;;;;;;;;6216283;23;20460;-90
2023/02/22 15:18:46;;;;;;;15.23;10.25;;;;;;;;;;6212660;23;20012;-89
2023/02/22 15:21:15;;;;;;;13.50;9.50;;;;;;;;;;6212873;23;20416;-89
2023/02/22 15:23:45;;;;;;;17.08;8.65;;;;;;;;;;6222013;23;20023;-90
2023/02/22 15:26:19;;;;;;;14.57;10.13;;;;;;;;;;6212486;23;20024;-90
2023/02/22 15:28:47;;;;;;;14.20;9.00;;;;;;;;;;6223962;23;20023;-89
2023/02/22 15:31:17;;;;;;;11.07;8.63;;;;;;;;;;6220903;23;20016;-89
2023/02/22 16:23:27;;;;;;;10.48;9.32;;;;;;;;;;6290730;22;20060;-85
2023/02/22 16:26:18;;;;;;;14.48;10.20;;;;;;;;;;6256144;23;20046;-87
2023/02/22 16:28:54;;;;;;;15.30;9.85;;;;;;;;;;6192751;23;20020;-89
2023/02/22 16:31:23;;;;;;;15.05;8.32;;;;;;;;;;6254025;23;20020;-88
2023/02/22 16:33:51;;;;;;;13.07;8.55;;;;;;;;;;6243120;23;20016;-88
2023/02/22 16:36:21;;;;;;;12.82;9.02;;;;;;;;;;6243405;23;20336;-88
2023/02/22 16:38:50;;;;;;;8.57;7.63;;;;;;;;;;6245905;23;20035;-88
2023/02/22 16:41:19;;;;;;;13.80;7.22;;;;;;;;;;6215418;23;20395;-87
2023/02/22 16:43:49;;;;;;;11.10;8.05;;;;;;;;;;6216633;23;20492;-88
2023/02/22 16:46:17;;;;;;;13.63;8.93;;;;;;;;;;6243215;23;20015;-88
2023/02/22 16:48:45;;;;;;;15.70;8.60;;;;;;;;;;6218006;23;20355;-89
2023/02/22 16:51:19;;;;;;;14.32;10.25;;;;;;;;;;6216499;23;20019;-88
2023/02/22 16:53:47;;;;;;;;;;;;;;;;;;6217842;23;20359;-89
2023/02/22 16:56:18;;;;;;;10.95;7.68;;;;;;;;;;6242674;23;19919;-88
2023/02/22 16:58:48;;;;;;;16.15;9.13;;;;;;;;;;6254889;23;20016;-88
2023/02/22 17:01:15;;;;;;;15.10;8.23;;;;;;;;;;6243333;23;20023;-88
2023/02/22 17:03:43;;;;;;;17.08;9.13;;;;;;;;;;6217534;23;20016;-88
2023/02/22 17:06:11;;;;;;;11.23;9.20;;;;;;;;;;6217433;23;20019;-88
2023/02/22 17:08:38;;;;;;;26.67;11.43;;;;;;;;;;6215822;23;20351;-89
2023/02/22 17:11:06;;;;;;;15.10;10.05;;;;;;;;;;6243823;23;20020;-89
2023/02/22 17:13:35;;;;;;;12.88;11.55;;;;;;;;;;6191655;23;20359;-89
2023/02/22 17:16:02;;;;;;;13.95;11.23;;;;;;;;;;6244251;23;20015;-89
2023/02/22 17:18:32;;;;;;;12.68;9.77;;;;;;;;;;6218643;23;20016;-89
2023/02/22 17:21:01;;;;;;;18.48;9.70;;;;;;;;;;6242985;23;20024;-88
2023/02/22 17:44:00;;;;;;;13.23;10.67;;;;;;;;;;6243987;23;20020;-88
2023/02/22 17:46:27;;;;;;;13.75;11.10;;;;;;;;;;6216179;23;20622;-88
2023/02/22 17:48:54;;;;;;;15.60;12.52;;;;;;;;;;6192409;23;20491;-88
2023/02/22 17:51:23;;;;;;;17.85;11.30;;;;;;;;;;6243955;23;20348;-88
2023/02/22 17:53:51;;;;;;;15.98;12.00;;;;;;;;;;6215832;23;20472;-87
2023/02/22 17:56:19;;;;;;;16.33;11.07;;;;;;;;;;6242214;23;20013;-88
2023/02/22 17:58:48;;;;;;;18.17;11.95;;;;;;;;;;6243030;23;20020;-88
2023/02/22 18:01:23;;;;;;;15.77;12.25;;;;;;;;;;6216313;23;20027;-87
2023/02/22 18:03:50;;;;;;;16.45;12.65;;;;;;;;;;6244203;23;20437;-88
2023/02/22 18:06:20;;;;;;;24.38;13.70;;;;;;;;;;6234890;23;20352;-87
2023/02/22 18:08:48;;;;;;;18.27;14.43;;;;;;;;;;6234287;23;20020;-86
2023/02/22 18:11:15;;;;;;;16.60;10.73;;;;;;;;;;6235014;23;20027;-86
2023/02/22 18:13:42;;;;;;;14.20;11.88;;;;;;;;;;6243255;23;20027;-88
2023/02/22 18:16:10;;;;;;;13.02;11.23;;;;;;;;;;6182129;23;20023;-87
2023/02/22 18:18:42;;;;;;;16.30;13.07;;;;;;;;;;6206784;23;20499;-87
2023/02/22 18:21:09;;;;;;;20.02;14.15;;;;;;;;;;6208076;23;20016;-87
2023/02/22 18:23:37;;;;;;;23.33;15.85;;;;;;;;;;6207666;23;20487;-87
2023/02/22 18:26:04;;;;;;;21.67;16.23;;;;;;;;;;6207944;23;20020;-88
2023/02/22 18:28:34;;;;;;;17.10;13.95;;;;;;;;;;6208738;23;20029;-87
2023/02/22 18:31:06;;;;;;;14.70;12.80;;;;;;;;;;6242061;23;20013;-88
2023/02/22 18:33:33;;;;;;;24.77;17.05;;;;;;;;;;6214408;23;20471;-88
2023/02/22 18:36:02;;;;;;;18.65;15.75;;;;;;;;;;6243584;23;20023;-88
2023/02/22 18:38:31;;;;;;;22.02;15.48;;;;;;;;;;6191470;23;20616;-88
2023/02/22 18:41:02;;;;;;;19.75;14.13;;;;;;;;;;6240899;23;20448;-88
2023/02/22 18:43:33;;;;;;;18.55;13.05;;;;;;;;;;6242812;23;20019;-87
2023/02/22 18:46:06;;;;;;;21.13;15.88;;;;;;;;;;6212397;23;20035;-88
2023/02/22 18:48:35;;;;;;;32.53;24.45;;;;;;;;;;6240349;23;20012;-88
2023/02/22 18:51:08;;;;;;;30.08;25.70;;;;;;;;;;6243131;23;20329;-87
2023/02/22 18:53:36;;;;;;;23.47;19.23;;;;;;;;;;6252359;23;20012;-87
2023/02/22 18:56:04;;;;;;;24.65;19.73;;;;;;;;;;6242884;23;20020;-88
2023/02/22 18:58:34;;;;;;;27.30;22.10;;;;;;;;;;6242193;23;20470;-87
2023/02/22 19:01:05;;;;;;;25.33;19.83;;;;;;;;;;6242997;23;20016;-87
2023/02/22 19:03:37;;;;;;;24.30;21.65;;;;;;;;;;6242173;23;20023;-88
2023/02/22 19:06:07;;;;;;;26.13;18.55;;;;;;;;;;6212946;23;20027;-87
2023/02/22 19:08:38;;;;;;;27.70;21.05;;;;;;;;;;6252432;23;20012;-87
2023/02/22 19:11:16;;;;;;;21.70;16.70;;;;;;;;;;6215738;23;20345;-87
2023/02/22 19:13:45;;;;;;;28.80;22.15;;;;;;;;;;6215286;23;20023;-87
2023/02/22 19:16:18;;;;;;;25.35;17.83;;;;;;;;;;6214422;23;20033;-88
2023/02/22 19:18:45;;;;;;;29.58;21.23;;;;;;;;;;6216176;23;20020;-87
2023/02/22 19:21:14;;;;;;;23.05;18.92;;;;;;;;;;6242201;23;20023;-87
2023/02/22 19:23:44;;;;;;;27.92;18.25;;;;;;;;;;6252182;23;20016;-88
2023/02/22 19:26:12;;;;;;;26.63;18.27;;;;;;;;;;6243220;23;20019;-87
2023/02/22 19:28:39;;;;;;;22.50;16.27;;;;;;;;;;6215839;23;20012;-87
2023/02/22 19:31:11;;;;;;;23.73;17.17;;;;;;;;;;6242026;23;20012;-88
2023/02/22 19:33:43;;;;;;;18.92;15.65;;;;;;;;;;6242198;23;20027;-88
2023/02/22 19:36:15;;;;;;;20.15;14.98;;;;;;;;;;6242038;23;20047;-88
2023/02/22 19:38:43;;;;;;;14.55;13.02;;;;;;;;;;6243299;23;20348;-88
2023/02/22 19:41:16;;;;;;;22.80;15.90;;;;;;;;;;6216373;23;20474;-88
2023/02/22 19:43:43;;;;;;;18.08;14.65;;;;;;;;;;6216112;23;20344;-88
2023/02/22 19:46:16;;;;;;;17.95;15.60;;;;;;;;;;6243570;23;20016;-88
2023/02/22 19:48:44;;;;;;;20.05;16.98;;;;;;;;;;6243163;23;20016;-88
2023/02/22 19:51:13;;;;;;;23.45;18.80;;;;;;;;;;6226781;23;20317;-88
2023/02/22 19:53:46;;;;;;;20.88;16.35;;;;;;;;;;6253439;23;20345;-88
2023/02/22 19:56:16;;;;;;;21.02;15.25;;;;;;;;;;6242677;23;20021;-88
2023/02/22 19:58:49;;;;;;;20.50;15.27;;;;;;;;;;6214882;23;20027;-88
2023/02/22 20:01:21;;;;;;;21.88;16.08;;;;;;;;;;6242697;23;20392;-88
2023/02/22 20:03:52;;;;;;;19.13;15.65;;;;;;;;;;6215446;23;20016;-88
2023/02/22 20:06:21;;;;;;;19.00;16.00;;;;;;;;;;6244228;23;20076;-88
2023/02/22 20:08:53;;;;;;;24.40;16.95;;;;;;;;;;6215029;23;20515;-88
2023/02/22 20:11:21;;;;;;;24.83;15.52;;;;;;;;;;6241256;23;20344;-88
2023/02/22 20:13:54;;;;;;;20.13;15.53;;;;;;;;;;6243220;23;20360;-88
2023/02/22 20:16:21;;;;;;;16.73;14.93;;;;;;;;;;6244157;23;20360;-88
2023/02/22 20:18:51;;;;;;;20.83;14.38;;;;;;;;;;6242313;23;20015;-88
2023/02/22 20:21:24;;;;;;;20.33;15.95;;;;;;;;;;6242056;23;20027;-89
2023/02/22 20:23:55;;;;;;;19.67;14.27;;;;;;;;;;6254428;23;20019;-88
2023/02/22 20:26:30;;;;;;;19.75;15.80;;;;;;;;;;6245536;23;20031;-89
2023/02/22 20:28:58;;;;;;;21.38;16.92;;;;;;;;;;6242482;23;20188;-88
2023/02/22 20:31:25;;;;;;;21.00;16.75;;;;;;;;;;6218285;23;20008;-88
2023/02/22 20:33:59;;;;;;;16.10;13.05;;;;;;;;;;6254340;23;20031;-88
2023/02/22 20:36:29;;;;;;;20.40;14.55;;;;;;;;;;6242327;23;20021;-88
2023/02/22 20:38:59;;;;;;;29.08;16.42;;;;;;;;;;6217939;23;20008;-88
2023/02/22 20:41:29;;;;;;;19.95;14.80;;;;;;;;;;6243440;23;20023;-88
2023/02/22 20:43:58;;;;;;;21.20;17.13;;;;;;;;;;6244728;23;20019;-88
2023/02/22 20:46:27;;;;;;;24.10;16.83;;;;;;;;;;6239807;23;20012;-88
2023/02/22 20:48:55;;;;;;;18.88;16.17;;;;;;;;;;6219713;23;20443;-88
2023/02/22 20:51:22;;;;;;;24.98;16.17;;;;;;;;;;6209290;23;20016;-88
2023/02/22 20:53:52;;;;;;;24.38;17.80;;;;;;;;;;6208110;23;20026;-88
2023/02/22 20:56:22;;;;;;;23.13;15.02;;;;;;;;;;6252435;22;20012;-86
2023/02/22 20:58:50;;;;;;;21.88;15.90;;;;;;;;;;6239959;22;20459;-87
2023/02/22 21:01:19;;;;;;;21.38;16.75;;;;;;;;;;6267107;22;20019;-87
2023/02/22 21:03:46;;;;;;;19.33;16.10;;;;;;;;;;6214473;22;20023;-88
2023/02/22 21:06:16;;;;;;;21.90;15.30;;;;;;;;;;6239804;22;20022;-88
2023/02/22 21:08:44;;;;;;;18.00;13.85;;;;;;;;;;6239465;22;20042;-87
2023/02/22 21:11:12;;;;;;;19.70;15.98;;;;;;;;;;6268645;22;20020;-87
2023/02/22 21:13:40;;;;;;;22.50;15.20;;;;;;;;;;6265771;22;20016;-88
2023/02/22 21:16:09;;;;;;;19.08;16.15;;;;;;;;;;6272927;22;20027;-87
2023/02/22 21:18:36;;;;;;;25.58;17.98;;;;;;;;;;6241456;22;20015;-87
2023/02/22 21:21:08;;;;;;;19.67;16.50;;;;;;;;;;6278188;22;20356;-87
2023/02/22 21:23:36;;;;;;;22.23;17.52;;;;;;;;;;6238873;22;20023;-87
2023/02/22 21:26:05;;;;;;;18.50;14.32;;;;;;;;;;6217177;22;20015;-87
2023/02/22 21:28:34;;;;;;;22.73;18.02;;;;;;;;;;6267381;22;20367;-87
2023/02/22 21:31:07;;;;;;;24.90;17.58;;;;;;;;;;6240089;22;20192;-86
2023/02/22 21:33:34;;;;;;;;;;;;;;;;;;6278821;22;20019;-88
2023/02/22 21:36:10;;;;;;;25.42;18.48;;;;;;;;;;6273316;22;19926;-87
2023/02/22 21:38:38;;;;;;;23.73;16.27;;;;;;;;;;6286734;22;20019;-86
2023/02/22 21:41:07;;;;;;;24.45;16.80;;;;;;;;;;6252326;22;20016;-87
2023/02/22 21:43:35;;;;;;;19.50;16.40;;;;;;;;;;6281216;22;20024;-88
2023/02/22 21:46:03;;;;;;;22.88;18.88;;;;;;;;;;6252105;22;20016;-87
2023/02/22 21:48:34;;;;;;;22.40;17.65;;;;;;;;;;6251590;22;20035;-88
2023/02/22 21:51:07;;;;;;;21.17;17.10;;;;;;;;;;6279321;22;20011;-86
2023/02/22 21:53:35;;;;;;;24.70;19.45;;;;;;;;;;6252918;22;20016;-87
2023/02/22 21:56:05;;;;;;;26.33;18.42;;;;;;;;;;6277758;22;20066;-87
2023/02/22 21:58:35;;;;;;;21.77;16.83;;;;;;;;;;6260831;22;20008;-88
2023/02/22 22:01:06;;;;;;;24.08;18.30;;;;;;;;;;6276720;22;20347;-88
2023/02/22 22:03:35;;;;;;;21.17;18.73;;;;;;;;;;6285840;22;20018;-87
2023/02/22 22:06:08;;;;;;;19.30;15.30;;;;;;;;;;6276180;22;20019;-88
2023/02/22 22:08:38;;;;;;;23.33;15.70;;;;;;;;;;6283009;22;20007;-87
2023/02/22 22:11:08;;;;;;;22.63;18.67;;;;;;;;;;6246361;22;20019;-87
2023/02/22 22:13:36;;;;;;;21.17;16.67;;;;;;;;;;6272424;22;20011;-88
2023/02/22 22:16:06;;;;;;;21.60;17.30;;;;;;;;;;6270569;22;20012;-88
2023/02/22 22:18:36;;;;;;;22.42;17.77;;;;;;;;;;6246173;22;20019;-88
2023/02/22 22:21:10;;;;;;;21.00;16.48;;;;;;;;;;6273891;22;20023;-87
2023/02/22 22:23:38;;;;;;;20.40;15.73;;;;;;;;;;6284185;22;20348;-87